Time;durP1;ratioP1;P1;durP2;ratioP2;P2;SDS_P1;SDS_P2;PMS_P1;PMS_P2;Temp;Humidity;BMP_temperature;BMP_pressure;BME280_temperature;BME280_humidity;BME280_pressure;Samples;Min_cycle;Max_cycle;Signal;HPM_P1;HPM_P2
2023/07/07 00:01:26;;;;;;;16.17;11.10;;;25.20;79.70;;;;;;5041429;28;20025;-75
2023/07/07 00:03:51;;;;;;;12.88;10.65;;;25.20;80.00;;;;;;5038016;28;20041;-75
2023/07/07 00:06:17;;;;;;;18.42;10.93;;;25.10;80.20;;;;;;5039794;28;20029;-77
2023/07/07 00:08:44;;;;;;;15.82;11.35;;;25.00;80.70;;;;;;5039337;28;20443;-77
2023/07/07 00:11:09;;;;;;;14.75;10.57;;;25.00;80.50;;;;;;5038188;28;20044;-77
2023/07/07 00:13:35;;;;;;;15.43;9.98;;;25.00;80.90;;;;;;5037855;28;20041;-77
2023/07/07 00:16:02;;;;;;;12.60;10.25;;;25.00;81.00;;;;;;5038237;28;20044;-78
2023/07/07 00:18:29;;;;;;;15.60;10.82;;;25.00;80.90;;;;;;5040850;28;20053;-77
2023/07/07 00:20:59;;;;;;;17.98;11.63;;;25.00;80.90;;;;;;5039898;28;20506;-78
2023/07/07 00:23:26;;;;;;;16.15;11.02;;;24.90;81.40;;;;;;5037625;28;20424;-77
2023/07/07 00:26:06;;;;;;;19.15;11.48;;;24.80;81.70;;;;;;5038046;28;20053;-77
2023/07/07 00:28:32;;;;;;;18.33;12.43;;;24.70;82.20;;;;;;5038799;28;20407;-77
2023/07/07 00:30:58;;;;;;;14.50;11.50;;;24.70;82.30;;;;;;5039559;28;20507;-76
2023/07/07 00:33:25;;;;;;;14.30;11.73;;;24.80;82.00;;;;;;5037526;28;20041;-77
2023/07/07 00:35:51;;;;;;;14.32;11.18;;;24.80;82.00;;;;;;5036380;28;20029;-77
2023/07/07 00:38:18;;;;;;;16.48;10.80;;;24.80;82.00;;;;;;5041395;28;20056;-77
2023/07/07 00:40:44;;;;;;;16.75;11.57;;;24.80;82.00;;;;;;5036810;28;20028;-77
2023/07/07 00:43:13;;;;;;;14.23;11.75;;;24.80;82.30;;;;;;5035349;28;20040;-76
2023/07/07 00:45:39;;;;;;;18.52;11.85;;;24.80;82.30;;;;;;5038915;28;20469;-78
2023/07/07 00:48:10;;;;;;;12.27;10.88;;;24.80;82.30;;;;;;5037715;28;20551;-78
2023/07/07 00:50:40;;;;;;;18.20;10.98;;;24.90;81.80;;;;;;5041367;28;20034;-77
2023/07/07 00:53:06;;;;;;;17.27;11.85;;;24.80;82.30;;;;;;5038223;28;20515;-77
2023/07/07 00:55:46;;;;;;;14.75;11.25;;;24.80;82.80;;;;;;5042036;28;20116;-78
2023/07/07 00:58:16;;;;;;;14.88;11.75;;;24.70;83.20;;;;;;5039881;28;20124;-78
2023/07/07 01:00:46;;;;;;;15.48;10.75;;;24.60;83.40;;;;;;5046469;28;20530;-78
2023/07/07 01:03:25;;;;;;;13.43;9.80;;;24.70;83.40;;;;;;5040067;28;20389;-78
2023/07/07 01:05:56;;;;;;;11.57;10.32;;;24.70;83.30;;;;;;5039988;28;20086;-78
2023/07/07 01:08:23;;;;;;;12.25;9.27;;;24.80;83.30;;;;;;5041116;28;20449;-78
2023/07/07 01:10:49;;;;;;;12.23;9.93;;;24.80;83.20;;;;;;5042992;28;20033;-77
2023/07/07 01:13:16;;;;;;;10.88;9.18;;;24.80;83.10;;;;;;5043847;28;20033;-78
2023/07/07 01:15:55;;;;;;;12.38;9.25;;;24.80;83.20;;;;;;5043749;28;20052;-77
2023/07/07 01:18:39;;;;;;;12.02;8.70;;;24.80;83.10;;;;;;5043863;28;20059;-76
2023/07/07 01:21:29;;;;;;;10.57;9.30;;;24.80;82.90;;;;;;5041854;28;20100;-77
2023/07/07 01:24:24;;;;;;;12.32;8.80;;;24.70;83.60;;;;;;5042432;28;20094;-77
2023/07/07 01:26:59;;;;;;;11.60;9.10;;;24.60;84.00;;;;;;5073405;28;20044;-78
2023/07/07 01:30:06;;;;;;;15.02;9.02;;;24.70;83.50;;;;;;5040723;28;20420;-77
2023/07/07 01:32:35;;;;;;;12.77;9.18;;;24.70;83.50;;;;;;5005075;28;20416;-77
2023/07/07 01:35:15;;;;;;;10.88;9.27;;;24.70;83.80;;;;;;5019620;28;20073;-77
2023/07/07 01:37:56;;;;;;;12.07;9.30;;;24.60;84.40;;;;;;5002657;28;20120;-77
2023/07/07 01:40:36;;;;;;;9.55;8.52;;;24.70;84.00;;;;;;5003574;28;20045;-77
2023/07/07 01:43:08;;;;;;;9.60;8.52;;;24.70;83.90;;;;;;5005127;28;20044;-77
2023/07/07 01:45:44;;;;;;;10.23;9.23;;;24.50;84.70;;;;;;5003614;28;20449;-77
2023/07/07 01:48:30;;;;;;;11.35;9.38;;;24.60;84.60;;;;;;5001844;28;20060;-77
2023/07/07 01:50:56;;;;;;;;;;;24.60;84.60;;;;;;5001526;28;20096;-77
2023/07/07 01:53:25;;;;;;;9.95;8.88;;;24.50;84.70;;;;;;5003392;28;19924;-77
2023/07/07 01:55:57;;;;;;;10.13;9.13;;;24.50;85.00;;;;;;5019994;28;20037;-77
2023/07/07 01:58:25;;;;;;;11.23;9.80;;;24.50;84.80;;;;;;5003493;28;20030;-77
2023/07/07 02:00:53;;;;;;;12.77;10.10;;;24.60;84.70;;;;;;4993506;28;20025;-77
2023/07/07 02:03:19;;;;;;;11.63;9.20;;;24.50;85.00;;;;;;5002198;28;20128;-78
2023/07/07 02:05:46;;;;;;;11.05;8.77;;;24.50;85.00;;;;;;5012637;28;20048;-78
2023/07/07 02:08:12;;;;;;;11.82;9.10;;;24.60;85.10;;;;;;5072798;28;20033;-77
2023/07/07 02:10:38;;;;;;;9.60;8.55;;;24.60;85.10;;;;;;5071526;28;20036;-77
2023/07/07 02:13:04;;;;;;;10.57;8.65;;;24.50;85.90;;;;;;5044346;28;20033;-77
2023/07/07 02:15:30;;;;;;;10.10;9.10;;;24.60;84.90;;;;;;5041663;28;20029;-77
2023/07/07 02:17:57;;;;;;;11.85;9.60;;;24.60;85.10;;;;;;5043842;28;20034;-78
2023/07/07 02:20:23;;;;;;;12.10;10.02;;;24.50;85.30;;;;;;5042495;28;20068;-78
2023/07/07 02:22:49;;;;;;;11.90;9.63;;;24.60;85.40;;;;;;5040444;28;21048;-77
2023/07/07 02:25:15;;;;;;;11.50;9.80;;;24.60;85.00;;;;;;5074063;28;20026;-77
2023/07/07 02:27:41;;;;;;;10.27;9.00;;;24.80;84.80;;;;;;5071769;28;20029;-77
2023/07/07 02:30:08;;;;;;;12.38;9.68;;;24.90;84.60;;;;;;5040348;28;20041;-76
2023/07/07 02:32:34;;;;;;;12.70;9.50;;;25.00;84.20;;;;;;5041760;28;20423;-77
2023/07/07 02:35:02;;;;;;;9.43;8.43;;;25.00;84.20;;;;;;5039575;28;20036;-77
2023/07/07 02:37:29;;;;;;;9.48;8.63;;;25.10;83.70;;;;;;5041378;28;20573;-78
2023/07/07 02:39:55;;;;;;;10.30;9.02;;;25.20;83.30;;;;;;5071313;28;20420;-78
2023/07/07 02:42:21;;;;;;;10.80;9.27;;;25.20;83.40;;;;;;5041350;28;20044;-77
2023/07/07 02:44:47;;;;;;;12.77;9.60;;;25.30;83.10;;;;;;5039644;28;20389;-77
2023/07/07 02:47:13;;;;;;;12.18;9.32;;;25.30;83.00;;;;;;5043269;28;20037;-78
2023/07/07 02:49:40;;;;;;;9.85;8.85;;;25.40;82.70;;;;;;5072564;28;20083;-78
2023/07/07 02:52:07;;;;;;;10.95;9.82;;;25.60;82.50;;;;;;5039982;28;20990;-78
2023/07/07 02:54:34;;;;;;;10.52;9.43;;;25.70;82.30;;;;;;5043746;28;20079;-77
2023/07/07 02:57:01;;;;;;;11.40;9.07;;;25.70;82.10;;;;;;5037415;28;20478;-76
2023/07/07 02:59:27;;;;;;;11.00;9.57;;;25.70;82.00;;;;;;5055847;28;20092;-77
2023/07/07 03:01:54;;;;;;;11.32;8.80;;;25.80;81.60;;;;;;5038597;28;20040;-77
2023/07/07 03:04:24;;;;;;;10.23;8.38;;;25.70;81.70;;;;;;5037860;28;20055;-76
2023/07/07 03:06:51;;;;;;;10.13;8.77;;;25.90;81.60;;;;;;5042342;28;20025;-86
2023/07/07 03:09:17;;;;;;;9.98;8.98;;;26.00;81.20;;;;;;5043605;28;20082;-83
2023/07/07 03:11:45;;;;;;;9.50;8.50;;;26.00;80.90;;;;;;5039453;28;20036;-76
2023/07/07 03:14:12;;;;;;;11.18;8.73;;;26.10;80.80;;;;;;5042320;28;20037;-89
2023/07/07 03:16:46;;;;;;;9.80;8.32;;;26.10;81.00;;;;;;5039513;28;20065;-84
2023/07/07 03:19:15;;;;;;;9.35;8.35;;;26.10;80.70;;;;;;5041897;28;20033;-84
2023/07/07 03:21:54;;;;;;;13.00;9.20;;;25.90;81.20;;;;;;5037862;28;20049;-87
2023/07/07 03:24:31;;;;;;;12.95;8.85;;;25.60;82.80;;;;;;5053364;28;20040;-85
2023/07/07 03:26:59;;;;;;;12.40;9.13;;;25.70;82.00;;;;;;5041683;28;20131;-84
2023/07/07 03:29:30;;;;;;;11.02;8.32;;;25.80;81.90;;;;;;5040779;28;20121;-74
2023/07/07 03:31:56;;;;;;;8.85;7.95;;;26.00;81.30;;;;;;5037009;28;20094;-75
2023/07/07 03:34:25;;;;;;;9.10;7.82;;;26.20;81.10;;;;;;5036126;28;20377;-75
2023/07/07 03:36:52;;;;;;;8.55;7.65;;;26.40;80.40;;;;;;5035400;28;20032;-74
2023/07/07 03:39:19;;;;;;;12.45;8.27;;;26.40;80.10;;;;;;5039652;28;20502;-75
2023/07/07 03:41:45;;;;;;;9.95;8.60;;;26.50;79.70;;;;;;5043460;28;20029;-75
2023/07/07 03:44:11;;;;;;;11.90;7.88;;;26.30;79.70;;;;;;5038877;28;20024;-79
2023/07/07 03:46:38;;;;;;;8.52;7.70;;;26.30;80.00;;;;;;5050315;28;20033;-84
2023/07/07 03:49:04;;;;;;;11.55;8.25;;;26.50;80.50;;;;;;5070750;28;20415;-79
2023/07/07 03:51:36;;;;;;;10.43;7.90;;;26.50;79.60;;;;;;5059033;28;20045;-83
2023/07/07 03:54:05;;;;;;;12.25;8.38;;;26.50;79.60;;;;;;5070873;28;20522;-75
2023/07/07 03:56:33;;;;;;;9.60;7.70;;;26.70;79.30;;;;;;5036936;28;20499;-74
2023/07/07 03:58:59;;;;;;;10.15;7.40;;;26.90;78.50;;;;;;5052534;28;20557;-73
2023/07/07 04:01:26;;;;;;;10.00;7.55;;;27.00;78.40;;;;;;5039472;28;20067;-75
2023/07/07 04:03:53;;;;;;;10.25;7.53;;;26.90;78.20;;;;;;5036201;28;20036;-76
2023/07/07 04:06:19;;;;;;;9.73;7.05;;;27.10;78.10;;;;;;5039626;28;20037;-74
2023/07/07 04:08:45;;;;;;;9.15;7.03;;;27.40;77.50;;;;;;5069989;28;20519;-73
2023/07/07 04:11:14;;;;;;;8.35;7.03;;;27.40;76.70;;;;;;5068403;28;20519;-76
2023/07/07 04:13:42;;;;;;;9.55;7.85;;;27.40;76.80;;;;;;5042454;28;20048;-78
2023/07/07 04:16:10;;;;;;;12.10;7.07;;;27.30;77.00;;;;;;5039200;28;20040;-78
2023/07/07 04:18:37;;;;;;;8.25;6.95;;;27.50;76.60;;;;;;5036738;28;20037;-80
2023/07/07 04:21:06;;;;;;;8.63;7.72;;;27.60;76.30;;;;;;5073340;28;20083;-86
2023/07/07 04:23:34;;;;;;;10.55;7.78;;;27.60;76.20;;;;;;5073546;28;20040;-88
2023/07/07 04:26:00;;;;;;;8.98;7.30;;;27.60;76.10;;;;;;5069995;28;20033;-89
2023/07/07 04:28:26;;;;;;;9.15;6.97;;;27.60;76.20;;;;;;5039090;28;20791;-84
2023/07/07 04:30:53;;;;;;;7.22;6.43;;;27.80;76.00;;;;;;5039890;28;20415;-89
2023/07/07 04:33:20;;;;;;;10.05;7.15;;;28.00;75.40;;;;;;5041920;28;20535;-86
2023/07/07 04:35:52;;;;;;;8.88;7.68;;;28.30;74.70;;;;;;5042182;28;20737;-79
2023/07/07 04:38:19;;;;;;;7.72;6.28;;;28.40;74.00;;;;;;5074831;28;20037;-88
2023/07/07 04:40:45;;;;;;;9.25;7.30;;;28.60;73.20;;;;;;5043157;28;20302;-88
2023/07/07 04:43:11;;;;;;;7.18;6.05;;;28.60;73.30;;;;;;5056707;28;20419;-84
2023/07/07 04:45:37;;;;;;;8.70;6.03;;;28.70;72.80;;;;;;5044193;28;20044;-87
2023/07/07 04:48:03;;;;;;;8.80;6.60;;;28.90;72.30;;;;;;5042040;28;20029;-87
2023/07/07 04:50:31;;;;;;;7.55;6.85;;;28.90;71.90;;;;;;5041109;28;20076;-82
2023/07/07 04:52:57;;;;;;;6.97;6.28;;;28.60;72.20;;;;;;5042907;28;20670;-85
2023/07/07 04:55:23;;;;;;;6.78;5.97;;;28.50;72.70;;;;;;5042985;28;20063;-86
2023/07/07 04:57:49;;;;;;;8.82;6.40;;;28.40;72.70;;;;;;5041370;28;20064;-84
2023/07/07 05:00:15;;;;;;;6.70;6.00;;;28.40;72.50;;;;;;5042711;28;20034;-85
2023/07/07 05:02:41;;;;;;;10.77;6.43;;;28.40;72.20;;;;;;5043018;28;20573;-84
2023/07/07 05:05:07;;;;;;;6.90;5.90;;;28.00;72.50;;;;;;5039822;28;20112;-83
2023/07/07 05:07:33;;;;;;;8.48;6.45;;;28.00;73.60;;;;;;5042435;28;20036;-89
2023/07/07 05:09:59;;;;;;;6.53;5.93;;;27.90;73.80;;;;;;5056914;28;20174;-85
2023/07/07 05:12:25;;;;;;;9.10;6.72;;;27.90;73.90;;;;;;5041089;28;20604;-87
2023/07/07 05:14:54;;;;;;;9.90;6.10;;;27.90;74.00;;;;;;5042689;28;20033;-85
2023/07/07 05:17:20;;;;;;;9.70;6.20;;;27.70;74.50;;;;;;5042435;28;20033;-88
2023/07/07 05:19:46;;;;;;;7.07;6.30;;;27.50;75.10;;;;;;5045730;28;20037;-80
2023/07/07 05:22:11;;;;;;;9.13;6.78;;;27.40;75.60;;;;;;5042887;28;20048;-90
2023/07/07 05:24:37;;;;;;;7.93;7.03;;;27.30;75.70;;;;;;5041728;28;20049;-90
2023/07/07 05:27:04;;;;;;;7.60;6.75;;;27.20;76.00;;;;;;5043235;28;20033;-86
2023/07/07 05:29:30;;;;;;;10.23;6.70;;;27.30;76.20;;;;;;5041468;28;20136;-83
2023/07/07 05:31:56;;;;;;;9.20;6.72;;;27.50;76.00;;;;;;5046190;28;20123;-91
2023/07/07 05:34:21;;;;;;;7.07;6.45;;;27.50;75.80;;;;;;5044081;28;20032;-93
2023/07/07 05:36:47;;;;;;;7.20;6.43;;;27.70;75.90;;;;;;5042999;28;20099;-93
2023/07/07 05:39:13;;;;;;;7.65;6.80;;;27.70;75.20;;;;;;5048362;28;20033;-90
2023/07/07 05:41:39;;;;;;;7.25;6.65;;;27.60;75.30;;;;;;5077544;28;20116;-91
2023/07/07 05:44:05;;;;;;;7.85;6.47;;;27.60;75.80;;;;;;5044225;28;20458;-89
2023/07/07 05:46:31;;;;;;;9.18;6.50;;;27.50;76.10;;;;;;5044769;28;20514;-90
2023/07/07 05:48:57;;;;;;;6.97;6.32;;;27.60;76.20;;;;;;5044423;28;20574;-89
2023/07/07 05:51:23;;;;;;;8.30;6.78;;;27.60;76.20;;;;;;5043575;28;20126;-82
2023/07/07 05:53:49;;;;;;;8.30;7.13;;;27.60;76.50;;;;;;5041264;28;20037;-86
2023/07/07 05:56:22;;;;;;;7.30;6.57;;;27.60;76.20;;;;;;5040151;28;20042;-85
2023/07/07 05:58:49;;;;;;;10.85;6.30;;;27.60;76.20;;;;;;5041705;28;20043;-83
2023/07/07 06:01:15;;;;;;;9.27;6.20;;;27.40;76.70;;;;;;5042485;28;20097;-87
2023/07/07 06:03:42;;;;;;;9.60;6.47;;;27.40;76.50;;;;;;5041477;28;20527;-86
2023/07/07 06:06:08;;;;;;;7.80;6.65;;;27.30;76.70;;;;;;5042367;28;20037;-84
2023/07/07 06:08:34;;;;;;;7.50;6.20;;;27.30;76.90;;;;;;5044120;28;20029;-84
2023/07/07 06:11:01;;;;;;;6.63;6.00;;;27.40;76.70;;;;;;5041490;28;20051;-93
2023/07/07 06:13:28;;;;;;;8.38;6.32;;;27.50;76.30;;;;;;5042788;28;20029;-77
2023/07/07 06:15:55;;;;;;;8.40;6.25;;;27.50;76.50;;;;;;5043479;28;20056;-84
2023/07/07 06:18:22;;;;;;;9.10;6.78;;;27.80;76.20;;;;;;5043943;28;20041;-88
2023/07/07 06:20:49;;;;;;;8.50;6.00;;;27.90;76.20;;;;;;5041607;28;20037;-85
2023/07/07 06:23:15;;;;;;;6.82;6.20;;;28.00;76.00;;;;;;5038611;28;20037;-83
2023/07/07 06:25:42;;;;;;;6.78;6.03;;;27.90;75.50;;;;;;5041873;28;20037;-85
2023/07/07 06:28:08;;;;;;;10.70;7.05;;;27.70;76.00;;;;;;5038967;28;20033;-84
2023/07/07 06:30:34;;;;;;;8.70;6.55;;;27.70;76.10;;;;;;5042513;28;20107;-87
2023/07/07 06:33:00;;;;;;;10.05;6.80;;;27.90;75.60;;;;;;5050568;28;20033;-80
2023/07/07 06:35:26;;;;;;;7.20;6.50;;;27.90;75.60;;;;;;5062231;28;20040;-82
2023/07/07 06:37:52;;;;;;;8.13;6.50;;;27.70;76.20;;;;;;5073725;28;20492;-79
2023/07/07 06:40:18;;;;;;;8.07;6.25;;;27.70;76.30;;;;;;5042671;28;20044;-75
2023/07/07 06:42:44;;;;;;;8.18;6.97;;;27.60;76.70;;;;;;5046841;28;20029;-76
2023/07/07 06:45:13;;;;;;;8.60;6.57;;;27.40;76.70;;;;;;5039989;28;20115;-77
2023/07/07 06:47:39;;;;;;;9.40;6.75;;;27.30;77.20;;;;;;5040386;28;20468;-74
2023/07/07 06:50:06;;;;;;;9.20;6.82;;;27.30;77.20;;;;;;5041714;28;20037;-73
2023/07/07 06:52:32;;;;;;;9.10;6.80;;;27.30;77.20;;;;;;5043538;28;20559;-74
2023/07/07 06:54:58;;;;;;;8.07;6.43;;;27.30;77.40;;;;;;5041949;28;20128;-73
2023/07/07 06:57:24;;;;;;;9.60;6.68;;;27.40;77.40;;;;;;5043500;28;20055;-73
2023/07/07 06:59:50;;;;;;;7.15;6.47;;;27.50;77.00;;;;;;5038051;28;20081;-73
2023/07/07 07:02:16;;;;;;;8.27;6.57;;;27.40;76.80;;;;;;5041385;28;20059;-75
2023/07/07 07:04:42;;;;;;;9.32;6.50;;;27.20;77.10;;;;;;5041299;28;20036;-75
2023/07/07 07:07:09;;;;;;;10.15;6.93;;;27.20;77.30;;;;;;5040782;28;20040;-75
2023/07/07 07:09:35;;;;;;;8.40;6.22;;;27.20;77.50;;;;;;5040201;28;20037;-75
2023/07/07 07:12:01;;;;;;;7.35;6.32;;;27.20;77.80;;;;;;5042323;28;20064;-74
2023/07/07 07:14:27;;;;;;;8.60;7.63;;;27.30;78.30;;;;;;5025581;28;20504;-76
2023/07/07 07:16:53;;;;;;;10.48;7.00;;;27.20;77.90;;;;;;5040097;28;20032;-74
2023/07/07 07:19:19;;;;;;;6.70;6.10;;;27.30;78.10;;;;;;5037182;28;20557;-76
2023/07/07 07:21:45;;;;;;;8.88;6.50;;;27.30;76.90;;;;;;5042352;28;20503;-77
2023/07/07 07:24:11;;;;;;;7.18;6.38;;;27.20;77.30;;;;;;5040262;28;20368;-76
2023/07/07 07:26:38;;;;;;;8.75;6.75;;;27.20;77.40;;;;;;5038759;28;20049;-76
2023/07/07 07:29:04;;;;;;;9.15;6.55;;;27.20;77.30;;;;;;5039675;28;20119;-75
2023/07/07 07:31:30;;;;;;;7.75;6.63;;;27.10;77.20;;;;;;5035252;28;20033;-76
2023/07/07 07:34:22;;;;;;;11.15;6.90;;;27.10;77.20;;;;;;5041265;28;20041;-75
2023/07/07 07:36:48;;;;;;;10.63;7.05;;;27.00;77.20;;;;;;5037353;28;20704;-75
2023/07/07 07:39:14;;;;;;;11.73;6.53;;;27.00;77.40;;;;;;5039101;28;20126;-75
2023/07/07 07:41:41;;;;;;;8.57;6.43;;;27.00;77.70;;;;;;5036891;28;20033;-77
2023/07/07 07:44:07;;;;;;;8.05;6.50;;;26.90;78.00;;;;;;5036369;28;20048;-76
2023/07/07 07:46:33;;;;;;;10.63;6.97;;;26.90;78.20;;;;;;5037592;28;20025;-76
2023/07/07 07:48:58;;;;;;;8.10;6.90;;;26.80;78.50;;;;;;5037026;28;20090;-80
2023/07/07 07:51:24;;;;;;;9.88;6.90;;;26.80;78.90;;;;;;5070356;28;20104;-73
2023/07/07 07:53:50;;;;;;;11.52;7.43;;;26.90;78.80;;;;;;5040313;28;20041;-77
2023/07/07 07:56:16;;;;;;;9.00;7.07;;;26.90;78.20;;;;;;5037834;28;20113;-80
2023/07/07 07:58:42;;;;;;;11.40;7.45;;;26.90;78.30;;;;;;5021203;28;20048;-77
2023/07/07 08:01:09;;;;;;;9.93;6.47;;;26.90;78.40;;;;;;5037026;28;20040;-75
2023/07/07 08:03:35;;;;;;;9.18;6.93;;;26.90;78.80;;;;;;5035302;28;20104;-77
2023/07/07 08:06:01;;;;;;;9.65;7.25;;;26.90;79.00;;;;;;5069363;28;20087;-76
2023/07/07 08:08:27;;;;;;;12.38;7.10;;;26.80;79.20;;;;;;5042925;28;20037;-71
2023/07/07 08:10:53;;;;;;;10.85;6.60;;;26.80;79.10;;;;;;5040909;28;20029;-72
2023/07/07 08:13:19;;;;;;;9.77;7.65;;;26.80;79.00;;;;;;5041221;28;20444;-83
2023/07/07 08:15:45;;;;;;;8.68;7.55;;;26.90;78.90;;;;;;5062196;28;20037;-81
2023/07/07 08:18:11;;;;;;;12.02;7.82;;;27.00;78.90;;;;;;5051346;28;20076;-84
2023/07/07 08:20:37;;;;;;;9.68;7.38;;;27.00;79.20;;;;;;5059999;28;20045;-85
2023/07/07 08:23:03;;;;;;;13.20;8.15;;;27.00;79.40;;;;;;5044013;28;20033;-84
2023/07/07 08:25:32;;;;;;;14.18;8.30;;;26.90;79.70;;;;;;5042625;28;20023;-77
2023/07/07 08:27:59;;;;;;;10.35;7.40;;;26.80;80.30;;;;;;5041485;28;20064;-78
2023/07/07 08:30:25;;;;;;;9.27;7.90;;;26.80;80.60;;;;;;5043039;28;20508;-78
2023/07/07 08:32:51;;;;;;;11.52;8.32;;;26.70;80.60;;;;;;5074767;28;20039;-77
2023/07/07 08:35:17;;;;;;;11.52;7.80;;;26.70;81.00;;;;;;5044008;28;20033;-77
2023/07/07 08:37:43;;;;;;;11.55;8.18;;;26.80;80.50;;;;;;5042584;28;20063;-74
2023/07/07 08:40:17;;;;;;;14.60;8.48;;;26.80;80.60;;;;;;5043303;28;20079;-74
2023/07/07 08:42:45;;;;;;;11.05;8.05;;;26.80;81.10;;;;;;5043600;28;20404;-76
2023/07/07 08:45:20;;;;;;;11.50;8.30;;;26.70;81.40;;;;;;5042865;28;20044;-74
2023/07/07 08:47:46;;;;;;;10.25;7.70;;;26.50;81.10;;;;;;5041854;28;20172;-76
2023/07/07 08:50:35;;;;;;;8.90;7.68;;;26.50;81.30;;;;;;5043357;28;20134;-72
2023/07/07 08:53:07;;;;;;;9.15;7.53;;;26.50;81.50;;;;;;5043103;28;20029;-73
2023/07/07 08:56:04;;;;;;;9.63;7.25;;;26.40;81.30;;;;;;5042966;28;20389;-76
2023/07/07 08:58:34;;;;;;;10.75;7.80;;;26.30;81.20;;;;;;5043784;28;20037;-76
2023/07/07 09:01:46;;;;;;;8.27;7.47;;;26.30;81.90;;;;;;5044068;28;20033;-78
2023/07/07 09:04:15;;;;;;;9.15;7.78;;;26.30;81.50;;;;;;5046673;28;20527;-84
2023/07/07 09:07:03;;;;;;;12.27;7.50;;;26.40;81.40;;;;;;5081933;28;20033;-84
2023/07/07 09:09:56;;;;;;;11.63;7.32;;;26.40;80.60;;;;;;5046921;28;20037;-82
2023/07/07 09:12:38;;;;;;;9.07;8.13;;;26.40;80.70;;;;;;5078046;28;20032;-84
2023/07/07 09:15:20;;;;;;;11.07;7.82;;;26.30;81.00;;;;;;5049216;28;20029;-78
2023/07/07 09:17:50;;;;;;;9.90;7.90;;;26.30;81.10;;;;;;5045659;28;20128;-77
2023/07/07 09:20:19;;;;;;;9.38;8.20;;;26.20;81.60;;;;;;5044940;28;20123;-85
2023/07/07 09:22:47;;;;;;;10.60;7.55;;;26.30;81.70;;;;;;5048767;28;20045;-81
2023/07/07 09:25:26;;;;;;;8.57;7.78;;;26.40;81.40;;;;;;5049619;28;20055;-80
2023/07/07 09:28:02;;;;;;;11.38;8.38;;;26.50;81.10;;;;;;5079402;28;20132;-83
2023/07/07 09:30:55;;;;;;;10.88;7.95;;;26.60;81.10;;;;;;5046774;28;20321;-83
2023/07/07 09:33:23;;;;;;;10.25;8.15;;;26.70;80.80;;;;;;5046378;28;20040;-81
2023/07/07 09:36:37;;;;;;;9.93;7.70;;;26.60;80.50;;;;;;5047096;28;20033;-83
2023/07/07 09:39:25;;;;;;;9.65;7.85;;;26.50;80.90;;;;;;5054396;28;20028;-85
2023/07/07 09:42:06;;;;;;;10.77;7.72;;;26.40;81.00;;;;;;5047048;28;20033;-82
2023/07/07 09:44:44;;;;;;;12.02;7.82;;;26.40;81.20;;;;;;5046096;28;20037;-86
2023/07/07 09:47:14;;;;;;;10.75;8.38;;;26.40;81.40;;;;;;5045679;28;20120;-85
2023/07/07 09:50:23;;;;;;;14.63;8.00;;;26.40;81.70;;;;;;5047211;28;20520;-82
2023/07/07 09:53:00;;;;;;;10.05;7.93;;;26.50;81.70;;;;;;5004992;28;20046;-83
2023/07/07 09:55:31;;;;;;;9.02;8.15;;;26.50;81.20;;;;;;5006910;28;20038;-84
2023/07/07 09:58:08;;;;;;;10.25;8.70;;;26.60;80.70;;;;;;5005860;28;20054;-85
2023/07/07 10:00:36;;;;;;;11.85;8.32;;;26.50;80.80;;;;;;5006456;28;20029;-85
2023/07/07 10:03:23;;;;;;;10.63;8.15;;;26.50;81.00;;;;;;5004145;28;20033;-86
2023/07/07 10:05:51;;;;;;;9.73;8.35;;;26.60;80.60;;;;;;5004215;28;20327;-83
2023/07/07 10:08:17;;;;;;;8.93;8.02;;;26.50;80.70;;;;;;5003204;28;20062;-85
2023/07/07 10:10:44;;;;;;;12.43;8.05;;;26.60;80.60;;;;;;5004899;28;20038;-86
2023/07/07 10:13:14;;;;;;;9.40;8.50;;;26.70;80.50;;;;;;5003779;28;20037;-85
2023/07/07 10:16:02;;;;;;;11.30;8.32;;;26.70;80.30;;;;;;5020034;28;20038;-83
2023/07/07 10:18:32;;;;;;;9.70;7.78;;;26.80;80.00;;;;;;5005243;28;20050;-82
2023/07/07 10:21:03;;;;;;;8.90;7.90;;;26.90;79.70;;;;;;5002924;28;20109;-85
2023/07/07 10:23:29;;;;;;;7.97;7.18;;;26.80;79.10;;;;;;5025205;28;20127;-82
2023/07/07 10:25:55;;;;;;;8.10;7.18;;;26.90;78.80;;;;;;5050313;28;20039;-83
2023/07/07 10:28:23;;;;;;;7.80;7.03;;;27.00;78.40;;;;;;5047449;28;20419;-85
2023/07/07 10:30:49;;;;;;;8.02;7.22;;;26.90;77.50;;;;;;5049148;28;20123;-85
2023/07/07 10:33:21;;;;;;;12.23;8.52;;;27.10;77.60;;;;;;5047473;28;20083;-84
2023/07/07 10:35:48;;;;;;;10.30;7.97;;;27.00;77.70;;;;;;5046221;28;20140;-84
2023/07/07 10:38:14;;;;;;;8.85;7.57;;;26.90;78.00;;;;;;5047969;28;20056;-85
2023/07/07 10:40:42;;;;;;;8.65;7.68;;;26.90;78.20;;;;;;5046811;28;20112;-85
2023/07/07 10:43:12;;;;;;;7.93;7.20;;;27.00;77.10;;;;;;5045304;28;20639;-83
2023/07/07 10:45:42;;;;;;;11.75;7.80;;;27.00;77.50;;;;;;5046516;28;20547;-86
2023/07/07 10:48:14;;;;;;;9.52;7.60;;;26.90;77.00;;;;;;5049358;28;20041;-82
2023/07/07 10:51:05;;;;;;;8.95;7.57;;;27.00;77.50;;;;;;5046255;28;20389;-85
2023/07/07 10:53:49;;;;;;;8.77;7.80;;;26.90;77.70;;;;;;5045087;28;20051;-84
2023/07/07 10:56:37;;;;;;;8.50;7.65;;;27.00;78.10;;;;;;5063361;28;20041;-85
2023/07/07 10:59:22;;;;;;;10.35;8.07;;;27.10;78.00;;;;;;5046711;28;20033;-85
2023/07/07 11:02:00;;;;;;;8.73;7.85;;;27.20;77.20;;;;;;5077224;28;20660;-81
2023/07/07 11:04:44;;;;;;;8.77;7.72;;;27.20;77.80;;;;;;5045274;28;20049;-86
2023/07/07 11:07:34;;;;;;;9.32;8.13;;;27.20;77.90;;;;;;5049010;28;20124;-85
2023/07/07 11:10:24;;;;;;;9.80;8.60;;;27.20;77.80;;;;;;5045102;28;20029;-85
2023/07/07 11:12:59;;;;;;;8.80;7.60;;;27.00;78.60;;;;;;5045258;28;20033;-85
2023/07/07 11:15:28;;;;;;;9.52;8.52;;;27.10;78.20;;;;;;5080896;28;20033;-86
2023/07/07 11:18:24;;;;;;;8.90;8.00;;;27.00;78.20;;;;;;5046865;28;20407;-87
2023/07/07 11:21:14;;;;;;;9.23;8.32;;;27.00;77.90;;;;;;5047077;28;20448;-85
2023/07/07 11:23:51;;;;;;;8.30;7.53;;;27.00;77.80;;;;;;5048227;28;20407;-85
2023/07/07 11:26:32;;;;;;;9.40;7.53;;;27.00;78.20;;;;;;5044500;28;20095;-84
2023/07/07 11:29:13;;;;;;;12.32;7.57;;;27.10;77.80;;;;;;5043941;28;20033;-83
2023/07/07 11:31:51;;;;;;;8.02;7.32;;;27.10;77.80;;;;;;5049180;28;20067;-85
2023/07/07 11:34:23;;;;;;;8.25;7.32;;;27.20;77.90;;;;;;5044830;28;20089;-84
2023/07/07 11:37:19;;;;;;;8.25;7.35;;;27.20;77.90;;;;;;5046592;28;20098;-82
2023/07/07 11:40:01;;;;;;;7.93;6.97;;;27.30;78.10;;;;;;5044724;28;20036;-85
2023/07/07 11:42:49;;;;;;;8.20;7.20;;;27.40;78.30;;;;;;5044720;28;20052;-85
2023/07/07 11:45:33;;;;;;;8.30;7.05;;;27.50;77.80;;;;;;5044413;28;20098;-84
2023/07/07 11:47:59;;;;;;;9.20;6.90;;;27.50;77.80;;;;;;5044829;28;20048;-85
2023/07/07 11:50:37;;;;;;;10.35;7.82;;;27.60;77.80;;;;;;5046430;28;20037;-84
2023/07/07 11:53:30;;;;;;;11.40;7.70;;;27.60;77.40;;;;;;5042448;28;20544;-85
2023/07/07 11:56:05;;;;;;;8.13;7.18;;;27.60;76.40;;;;;;5044802;28;20033;-84
2023/07/07 11:58:49;;;;;;;11.43;7.70;;;27.50;76.20;;;;;;5043251;28;20067;-84
2023/07/07 12:01:25;;;;;;;11.02;7.10;;;27.60;76.30;;;;;;5078200;28;20052;-85
2023/07/07 12:03:54;;;;;;;11.18;7.40;;;27.60;76.30;;;;;;5043417;28;20111;-85
2023/07/07 12:06:29;;;;;;;11.57;7.30;;;27.70;76.00;;;;;;5046301;28;20173;-85
2023/07/07 12:09:05;;;;;;;9.48;7.45;;;27.70;75.80;;;;;;5045246;28;20044;-83
2023/07/07 12:11:38;;;;;;;7.80;7.00;;;27.60;75.80;;;;;;5044755;28;20046;-84
2023/07/07 12:14:31;;;;;;;7.63;6.82;;;27.70;75.70;;;;;;5043447;28;20039;-84
2023/07/07 12:16:59;;;;;;;8.43;6.82;;;27.70;76.30;;;;;;5061650;28;20045;-81
2023/07/07 12:19:36;;;;;;;7.80;7.00;;;27.70;76.00;;;;;;5063831;28;20420;-85
2023/07/07 12:22:05;;;;;;;8.90;7.70;;;27.70;76.00;;;;;;5060594;28;20084;-84
2023/07/07 12:24:42;;;;;;;9.20;8.02;;;27.60;75.40;;;;;;5061807;28;20523;-84
2023/07/07 12:27:32;;;;;;;10.15;7.72;;;27.50;75.70;;;;;;5062153;28;20037;-81
2023/07/07 12:30:00;;;;;;;10.27;7.68;;;27.60;76.10;;;;;;5063950;28;20480;-84
2023/07/07 12:32:26;;;;;;;7.68;6.88;;;27.60;76.50;;;;;;5063146;28;20083;-85
2023/07/07 12:35:12;;;;;;;8.85;7.72;;;27.60;76.70;;;;;;5064234;28;20041;-85
2023/07/07 12:37:38;;;;;;;7.25;6.63;;;27.70;76.90;;;;;;5061918;28;20048;-85
2023/07/07 12:40:10;;;;;;;8.50;7.10;;;27.70;77.90;;;;;;5061984;28;20423;-85
2023/07/07 12:42:39;;;;;;;10.43;8.25;;;27.70;77.00;;;;;;5060696;28;20458;-85
2023/07/07 12:45:09;;;;;;;11.50;7.38;;;27.60;77.40;;;;;;5060967;28;20578;-84
2023/07/07 12:47:40;;;;;;;12.25;7.68;;;27.60;77.30;;;;;;5033021;28;20518;-84
2023/07/07 12:50:28;;;;;;;11.20;7.88;;;27.60;76.50;;;;;;5062584;28;20033;-84
2023/07/07 12:53:03;;;;;;;9.00;8.00;;;27.60;76.40;;;;;;5062679;28;20032;-85
2023/07/07 12:55:30;;;;;;;11.77;7.65;;;27.50;76.60;;;;;;5047485;28;20044;-84
2023/07/07 12:58:06;;;;;;;8.77;7.97;;;27.60;76.50;;;;;;5048812;28;20060;-85
2023/07/07 13:00:34;;;;;;;8.15;7.30;;;27.50;76.50;;;;;;5044176;28;20403;-83